sensor_id;sensor_type;location;lat;lon;timestamp;P1;durP1;ratioP1;P2;durP2;ratioP2
7983;SDS011;4037;47.980;10.172;2023-05-07T00:00:46;7.37;;;6.40;;
7983;SDS011;4037;47.980;10.172;2023-05-07T00:03:13;7.47;;;6.77;;
7983;SDS011;4037;47.980;10.172;2023-05-07T00:05:39;7.50;;;6.80;;
7983;SDS011;4037;47.980;10.172;2023-05-07T00:08:06;8.33;;;6.30;;
7983;SDS011;4037;47.980;10.172;2023-05-07T00:10:33;7.90;;;6.87;;
7983;SDS011;4037;47.980;10.172;2023-05-07T00:12:59;7.93;;;7.07;;
7983;SDS011;4037;47.980;10.172;2023-05-07T00:15:25;7.23;;;6.30;;
7983;SDS011;4037;47.980;10.172;2023-05-07T00:17:51;8.07;;;6.57;;
7983;SDS011;4037;47.980;10.172;2023-05-07T00:20:17;7.67;;;6.87;;
7983;SDS011;4037;47.980;10.172;2023-05-07T00:22:43;7.40;;;6.80;;
7983;SDS011;4037;47.980;10.172;2023-05-07T00:25:09;7.97;;;6.27;;
7983;SDS011;4037;47.980;10.172;2023-05-07T00:27:35;9.43;;;6.83;;
7983;SDS011;4037;47.980;10.172;2023-05-07T00:30:01;6.70;;;6.10;;
7983;SDS011;4037;47.980;10.172;2023-05-07T00:32:27;7.57;;;6.63;;
7983;SDS011;4037;47.980;10.172;2023-05-07T00:34:53;6.70;;;6.10;;
7983;SDS011;4037;47.980;10.172;2023-05-07T00:37:20;7.40;;;6.80;;
7983;SDS011;4037;47.980;10.172;2023-05-07T00:39:46;7.53;;;6.03;;
7983;SDS011;4037;47.980;10.172;2023-05-07T00:42:12;9.53;;;6.93;;
7983;SDS011;4037;47.980;10.172;2023-05-07T00:44:39;7.17;;;6.10;;
7983;SDS011;4037;47.980;10.172;2023-05-07T00:47:06;8.03;;;6.90;;
7983;SDS011;4037;47.980;10.172;2023-05-07T00:49:37;8.93;;;6.30;;
7983;SDS011;4037;47.980;10.172;2023-05-07T00:52:05;7.67;;;6.97;;
7983;SDS011;4037;47.980;10.172;2023-05-07T00:54:31;7.57;;;6.87;;
7983;SDS011;4037;47.980;10.172;2023-05-07T00:56:58;8.00;;;7.17;;
7983;SDS011;4037;47.980;10.172;2023-05-07T00:59:25;6.67;;;6.07;;
7983;SDS011;4037;47.980;10.172;2023-05-07T01:01:51;7.87;;;6.60;;
7983;SDS011;4037;47.980;10.172;2023-05-07T01:04:17;7.47;;;6.63;;
7983;SDS011;4037;47.980;10.172;2023-05-07T01:06:44;6.97;;;6.27;;
7983;SDS011;4037;47.980;10.172;2023-05-07T01:09:10;7.17;;;6.47;;
7983;SDS011;4037;47.980;10.172;2023-05-07T01:11:36;7.47;;;6.40;;
7983;SDS011;4037;47.980;10.172;2023-05-07T01:14:03;7.63;;;6.57;;
7983;SDS011;4037;47.980;10.172;2023-05-07T01:16:29;7.63;;;6.57;;
7983;SDS011;4037;47.980;10.172;2023-05-07T01:18:56;6.53;;;5.93;;
7983;SDS011;4037;47.980;10.172;2023-05-07T01:21:25;7.97;;;5.90;;
7983;SDS011;4037;47.980;10.172;2023-05-07T01:23:52;7.23;;;6.53;;
7983;SDS011;4037;47.980;10.172;2023-05-07T01:26:18;6.70;;;6.07;;
7983;SDS011;4037;47.980;10.172;2023-05-07T01:28:44;7.17;;;6.40;;
7983;SDS011;4037;47.980;10.172;2023-05-07T01:31:10;7.43;;;6.57;;
7983;SDS011;4037;47.980;10.172;2023-05-07T01:33:38;7.47;;;6.77;;
7983;SDS011;4037;47.980;10.172;2023-05-07T01:36:05;8.70;;;6.77;;
7983;SDS011;4037;47.980;10.172;2023-05-07T01:38:33;8.17;;;7.37;;
7983;SDS011;4037;47.980;10.172;2023-05-07T01:40:59;7.07;;;6.43;;
7983;SDS011;4037;47.980;10.172;2023-05-07T01:43:25;7.67;;;6.97;;
7983;SDS011;4037;47.980;10.172;2023-05-07T01:45:52;7.33;;;6.63;;
7983;SDS011;4037;47.980;10.172;2023-05-07T01:48:18;6.23;;;5.67;;
7983;SDS011;4037;47.980;10.172;2023-05-07T01:50:44;7.23;;;6.63;;
7983;SDS011;4037;47.980;10.172;2023-05-07T01:53:10;7.33;;;6.20;;
7983;SDS011;4037;47.980;10.172;2023-05-07T01:55:36;8.20;;;7.40;;
7983;SDS011;4037;47.980;10.172;2023-05-07T01:58:03;8.53;;;7.53;;
7983;SDS011;4037;47.980;10.172;2023-05-07T02:00:29;8.23;;;7.43;;
7983;SDS011;4037;47.980;10.172;2023-05-07T02:02:55;8.23;;;6.90;;
7983;SDS011;4037;47.980;10.172;2023-05-07T02:05:21;10.03;;;6.93;;
7983;SDS011;4037;47.980;10.172;2023-05-07T02:07:47;8.40;;;7.50;;
7983;SDS011;4037;47.980;10.172;2023-05-07T02:10:13;7.40;;;6.70;;
7983;SDS011;4037;47.980;10.172;2023-05-07T02:12:39;7.60;;;6.80;;
7983;SDS011;4037;47.980;10.172;2023-05-07T02:15:05;8.13;;;7.33;;
7983;SDS011;4037;47.980;10.172;2023-05-07T02:17:31;7.63;;;6.83;;
7983;SDS011;4037;47.980;10.172;2023-05-07T02:19:58;6.60;;;6.00;;
7983;SDS011;4037;47.980;10.172;2023-05-07T02:22:24;8.47;;;7.00;;
7983;SDS011;4037;47.980;10.172;2023-05-07T02:24:50;6.77;;;6.07;;
7983;SDS011;4037;47.980;10.172;2023-05-07T02:27:17;9.50;;;6.80;;
7983;SDS011;4037;47.980;10.172;2023-05-07T02:29:43;6.83;;;6.23;;
7983;SDS011;4037;47.980;10.172;2023-05-07T02:32:09;6.77;;;5.70;;
7983;SDS011;4037;47.980;10.172;2023-05-07T02:34:35;8.23;;;6.73;;
7983;SDS011;4037;47.980;10.172;2023-05-07T02:37:01;8.03;;;6.57;;
7983;SDS011;4037;47.980;10.172;2023-05-07T02:39:27;9.20;;;6.67;;
7983;SDS011;4037;47.980;10.172;2023-05-07T02:41:53;7.70;;;6.43;;
7983;SDS011;4037;47.980;10.172;2023-05-07T02:44:19;7.43;;;6.63;;
7983;SDS011;4037;47.980;10.172;2023-05-07T02:46:45;8.23;;;6.87;;
7983;SDS011;4037;47.980;10.172;2023-05-07T02:49:11;7.57;;;6.87;;
7983;SDS011;4037;47.980;10.172;2023-05-07T02:51:37;7.37;;;6.60;;
7983;SDS011;4037;47.980;10.172;2023-05-07T02:54:03;7.37;;;6.67;;
7983;SDS011;4037;47.980;10.172;2023-05-07T02:56:29;6.73;;;6.03;;
7983;SDS011;4037;47.980;10.172;2023-05-07T02:58:55;5.93;;;5.40;;
7983;SDS011;4037;47.980;10.172;2023-05-07T03:01:21;7.37;;;6.10;;
7983;SDS011;4037;47.980;10.172;2023-05-07T03:03:47;7.53;;;5.87;;
7983;SDS011;4037;47.980;10.172;2023-05-07T03:06:13;6.13;;;5.53;;
7983;SDS011;4037;47.980;10.172;2023-05-07T03:08:40;7.63;;;6.00;;
7983;SDS011;4037;47.980;10.172;2023-05-07T03:11:06;8.73;;;6.37;;
7983;SDS011;4037;47.980;10.172;2023-05-07T03:13:32;7.73;;;5.77;;
7983;SDS011;4037;47.980;10.172;2023-05-07T03:15:58;7.33;;;6.63;;
7983;SDS011;4037;47.980;10.172;2023-05-07T03:18:24;6.97;;;5.97;;
7983;SDS011;4037;47.980;10.172;2023-05-07T03:20:51;6.70;;;6.03;;
7983;SDS011;4037;47.980;10.172;2023-05-07T03:23:17;6.70;;;5.80;;
7983;SDS011;4037;47.980;10.172;2023-05-07T03:25:43;6.83;;;6.20;;
7983;SDS011;4037;47.980;10.172;2023-05-07T03:28:09;6.67;;;5.67;;
7983;SDS011;4037;47.980;10.172;2023-05-07T03:30:35;7.00;;;6.30;;
7983;SDS011;4037;47.980;10.172;2023-05-07T03:33:01;9.43;;;6.53;;
7983;SDS011;4037;47.980;10.172;2023-05-07T03:35:27;6.90;;;6.23;;
7983;SDS011;4037;47.980;10.172;2023-05-07T03:37:53;7.13;;;6.13;;
7983;SDS011;4037;47.980;10.172;2023-05-07T03:40:19;7.17;;;6.30;;
7983;SDS011;4037;47.980;10.172;2023-05-07T03:42:45;6.37;;;5.77;;
7983;SDS011;4037;47.980;10.172;2023-05-07T03:45:11;6.77;;;5.83;;
7983;SDS011;4037;47.980;10.172;2023-05-07T03:47:37;6.90;;;6.20;;
7983;SDS011;4037;47.980;10.172;2023-05-07T03:50:03;12.60;;;6.37;;
7983;SDS011;4037;47.980;10.172;2023-05-07T03:52:29;6.80;;;6.20;;
7983;SDS011;4037;47.980;10.172;2023-05-07T03:54:55;7.23;;;6.53;;
7983;SDS011;4037;47.980;10.172;2023-05-07T03:57:21;7.27;;;6.60;;
7983;SDS011;4037;47.980;10.172;2023-05-07T03:59:47;7.33;;;6.57;;
7983;SDS011;4037;47.980;10.172;2023-05-07T04:02:13;7.40;;;6.07;;
7983;SDS011;4037;47.980;10.172;2023-05-07T04:04:39;8.77;;;6.47;;
7983;SDS011;4037;47.980;10.172;2023-05-07T04:07:05;7.13;;;6.43;;
7983;SDS011;4037;47.980;10.172;2023-05-07T04:09:32;7.20;;;6.00;;
7983;SDS011;4037;47.980;10.172;2023-05-07T04:11:58;6.57;;;5.97;;
7983;SDS011;4037;47.980;10.172;2023-05-07T04:14:24;7.10;;;6.27;;
7983;SDS011;4037;47.980;10.172;2023-05-07T04:16:50;7.47;;;6.87;;
7983;SDS011;4037;47.980;10.172;2023-05-07T04:19:16;7.00;;;5.87;;
7983;SDS011;4037;47.980;10.172;2023-05-07T04:21:42;7.53;;;6.80;;
7983;SDS011;4037;47.980;10.172;2023-05-07T04:24:08;7.47;;;6.63;;
7983;SDS011;4037;47.980;10.172;2023-05-07T04:26:34;7.27;;;6.67;;
7983;SDS011;4037;47.980;10.172;2023-05-07T04:29:00;7.63;;;6.80;;
7983;SDS011;4037;47.980;10.172;2023-05-07T04:31:26;8.10;;;7.30;;
7983;SDS011;4037;47.980;10.172;2023-05-07T04:33:52;7.80;;;7.00;;
7983;SDS011;4037;47.980;10.172;2023-05-07T04:36:18;8.07;;;7.27;;
7983;SDS011;4037;47.980;10.172;2023-05-07T04:38:44;8.60;;;7.47;;
7983;SDS011;4037;47.980;10.172;2023-05-07T04:41:12;7.43;;;6.67;;
7983;SDS011;4037;47.980;10.172;2023-05-07T04:43:38;8.37;;;7.57;;
7983;SDS011;4037;47.980;10.172;2023-05-07T04:46:05;8.50;;;7.23;;
7983;SDS011;4037;47.980;10.172;2023-05-07T04:48:31;9.00;;;8.17;;
7983;SDS011;4037;47.980;10.172;2023-05-07T04:50:57;9.90;;;8.50;;
7983;SDS011;4037;47.980;10.172;2023-05-07T04:53:23;9.07;;;8.13;;
7983;SDS011;4037;47.980;10.172;2023-05-07T04:55:49;8.80;;;7.87;;
7983;SDS011;4037;47.980;10.172;2023-05-07T04:58:20;8.90;;;8.07;;
7983;SDS011;4037;47.980;10.172;2023-05-07T05:00:46;8.60;;;7.77;;
7983;SDS011;4037;47.980;10.172;2023-05-07T05:03:12;8.80;;;8.00;;
7983;SDS011;4037;47.980;10.172;2023-05-07T05:05:38;8.73;;;7.83;;
7983;SDS011;4037;47.980;10.172;2023-05-07T05:08:04;9.10;;;8.20;;
7983;SDS011;4037;47.980;10.172;2023-05-07T05:10:30;8.97;;;8.07;;
7983;SDS011;4037;47.980;10.172;2023-05-07T05:12:56;8.60;;;7.60;;
7983;SDS011;4037;47.980;10.172;2023-05-07T05:15:22;7.90;;;7.20;;
7983;SDS011;4037;47.980;10.172;2023-05-07T05:17:48;9.00;;;8.20;;
7983;SDS011;4037;47.980;10.172;2023-05-07T05:20:14;8.80;;;7.90;;
7983;SDS011;4037;47.980;10.172;2023-05-07T05:22:41;8.47;;;7.77;;
7983;SDS011;4037;47.980;10.172;2023-05-07T05:25:07;8.33;;;7.53;;
7983;SDS011;4037;47.980;10.172;2023-05-07T05:27:34;8.83;;;8.03;;
7983;SDS011;4037;47.980;10.172;2023-05-07T05:30:00;8.93;;;7.90;;
7983;SDS011;4037;47.980;10.172;2023-05-07T05:32:26;8.73;;;7.67;;
7983;SDS011;4037;47.980;10.172;2023-05-07T05:34:52;8.43;;;7.63;;
7983;SDS011;4037;47.980;10.172;2023-05-07T05:37:18;7.90;;;7.07;;
7983;SDS011;4037;47.980;10.172;2023-05-07T05:39:44;8.07;;;7.27;;
7983;SDS011;4037;47.980;10.172;2023-05-07T05:42:10;10.57;;;7.53;;
7983;SDS011;4037;47.980;10.172;2023-05-07T05:44:36;11.87;;;7.63;;
7983;SDS011;4037;47.980;10.172;2023-05-07T05:47:03;8.73;;;7.73;;
7983;SDS011;4037;47.980;10.172;2023-05-07T05:49:29;8.10;;;7.30;;
7983;SDS011;4037;47.980;10.172;2023-05-07T05:51:55;7.93;;;7.23;;
7983;SDS011;4037;47.980;10.172;2023-05-07T05:54:21;7.97;;;7.20;;
7983;SDS011;4037;47.980;10.172;2023-05-07T05:56:47;10.27;;;8.03;;
7983;SDS011;4037;47.980;10.172;2023-05-07T05:59:13;8.13;;;7.10;;
7983;SDS011;4037;47.980;10.172;2023-05-07T06:01:39;8.13;;;7.43;;
7983;SDS011;4037;47.980;10.172;2023-05-07T06:04:05;7.50;;;6.57;;
7983;SDS011;4037;47.980;10.172;2023-05-07T06:06:31;7.43;;;6.47;;
7983;SDS011;4037;47.980;10.172;2023-05-07T06:08:57;6.70;;;6.10;;
7983;SDS011;4037;47.980;10.172;2023-05-07T06:11:23;7.20;;;6.50;;
7983;SDS011;4037;47.980;10.172;2023-05-07T06:13:50;7.00;;;6.40;;
7983;SDS011;4037;47.980;10.172;2023-05-07T06:16:16;6.83;;;6.13;;
7983;SDS011;4037;47.980;10.172;2023-05-07T06:18:42;7.00;;;6.30;;
7983;SDS011;4037;47.980;10.172;2023-05-07T06:21:10;6.33;;;5.83;;
7983;SDS011;4037;47.980;10.172;2023-05-07T06:23:36;6.30;;;5.73;;
7983;SDS011;4037;47.980;10.172;2023-05-07T06:26:02;6.60;;;6.00;;
7983;SDS011;4037;47.980;10.172;2023-05-07T06:28:28;5.97;;;5.47;;
7983;SDS011;4037;47.980;10.172;2023-05-07T06:30:55;6.57;;;5.70;;
7983;SDS011;4037;47.980;10.172;2023-05-07T06:33:21;6.60;;;5.77;;
7983;SDS011;4037;47.980;10.172;2023-05-07T06:35:47;6.33;;;5.73;;
7983;SDS011;4037;47.980;10.172;2023-05-07T06:38:13;7.40;;;6.17;;
7983;SDS011;4037;47.980;10.172;2023-05-07T06:40:39;6.77;;;6.10;;
7983;SDS011;4037;47.980;10.172;2023-05-07T06:43:05;6.57;;;5.97;;
7983;SDS011;4037;47.980;10.172;2023-05-07T06:45:31;7.33;;;6.10;;
7983;SDS011;4037;47.980;10.172;2023-05-07T06:47:57;6.90;;;5.43;;
7983;SDS011;4037;47.980;10.172;2023-05-07T06:50:23;6.63;;;5.70;;
7983;SDS011;4037;47.980;10.172;2023-05-07T06:52:49;7.90;;;6.30;;
7983;SDS011;4037;47.980;10.172;2023-05-07T06:55:15;6.30;;;5.53;;
7983;SDS011;4037;47.980;10.172;2023-05-07T06:57:41;6.13;;;5.50;;
7983;SDS011;4037;47.980;10.172;2023-05-07T07:00:08;8.33;;;5.67;;
7983;SDS011;4037;47.980;10.172;2023-05-07T07:02:34;6.83;;;5.77;;
7983;SDS011;4037;47.980;10.172;2023-05-07T07:05:00;7.23;;;5.43;;
7983;SDS011;4037;47.980;10.172;2023-05-07T07:07:26;5.53;;;5.00;;
7983;SDS011;4037;47.980;10.172;2023-05-07T07:09:52;6.97;;;5.03;;
7983;SDS011;4037;47.980;10.172;2023-05-07T07:12:18;6.10;;;5.60;;
7983;SDS011;4037;47.980;10.172;2023-05-07T07:14:44;6.77;;;5.13;;
7983;SDS011;4037;47.980;10.172;2023-05-07T07:17:10;6.70;;;5.00;;
7983;SDS011;4037;47.980;10.172;2023-05-07T07:19:36;5.63;;;5.00;;
7983;SDS011;4037;47.980;10.172;2023-05-07T07:22:03;5.70;;;5.17;;
7983;SDS011;4037;47.980;10.172;2023-05-07T07:24:29;5.50;;;5.00;;
7983;SDS011;4037;47.980;10.172;2023-05-07T07:26:55;5.00;;;4.50;;
7983;SDS011;4037;47.980;10.172;2023-05-07T07:29:22;5.83;;;4.73;;
7983;SDS011;4037;47.980;10.172;2023-05-07T07:31:50;5.57;;;4.93;;
7983;SDS011;4037;47.980;10.172;2023-05-07T07:34:16;5.13;;;4.70;;
7983;SDS011;4037;47.980;10.172;2023-05-07T07:36:42;7.93;;;5.13;;
7983;SDS011;4037;47.980;10.172;2023-05-07T07:39:08;5.20;;;4.70;;
7983;SDS011;4037;47.980;10.172;2023-05-07T07:41:34;5.37;;;4.87;;
7983;SDS011;4037;47.980;10.172;2023-05-07T07:44:00;4.47;;;4.17;;
7983;SDS011;4037;47.980;10.172;2023-05-07T07:46:28;5.93;;;4.50;;
7983;SDS011;4037;47.980;10.172;2023-05-07T07:48:54;4.30;;;3.70;;
7983;SDS011;4037;47.980;10.172;2023-05-07T07:51:23;4.77;;;3.93;;
7983;SDS011;4037;47.980;10.172;2023-05-07T07:53:49;4.47;;;3.87;;
7983;SDS011;4037;47.980;10.172;2023-05-07T07:56:15;5.97;;;4.47;;
7983;SDS011;4037;47.980;10.172;2023-05-07T07:58:41;6.07;;;4.07;;
7983;SDS011;4037;47.980;10.172;2023-05-07T08:01:07;6.43;;;3.73;;
7983;SDS011;4037;47.980;10.172;2023-05-07T08:03:33;6.60;;;4.30;;
7983;SDS011;4037;47.980;10.172;2023-05-07T08:05:59;4.50;;;3.80;;
7983;SDS011;4037;47.980;10.172;2023-05-07T08:08:25;5.40;;;4.13;;
7983;SDS011;4037;47.980;10.172;2023-05-07T08:10:51;4.37;;;3.97;;
7983;SDS011;4037;47.980;10.172;2023-05-07T08:13:17;6.10;;;3.43;;
7983;SDS011;4037;47.980;10.172;2023-05-07T08:15:43;5.30;;;3.53;;
7983;SDS011;4037;47.980;10.172;2023-05-07T08:18:09;4.40;;;4.00;;
7983;SDS011;4037;47.980;10.172;2023-05-07T08:20:35;3.97;;;3.57;;
7983;SDS011;4037;47.980;10.172;2023-05-07T08:23:04;6.93;;;3.73;;
7983;SDS011;4037;47.980;10.172;2023-05-07T08:25:32;4.13;;;3.70;;
7983;SDS011;4037;47.980;10.172;2023-05-07T08:27:59;4.20;;;3.40;;
7983;SDS011;4037;47.980;10.172;2023-05-07T08:30:25;6.60;;;3.97;;
7983;SDS011;4037;47.980;10.172;2023-05-07T08:32:51;5.10;;;3.50;;
7983;SDS011;4037;47.980;10.172;2023-05-07T08:35:17;5.37;;;3.80;;
7983;SDS011;4037;47.980;10.172;2023-05-07T08:37:43;5.23;;;4.10;;
7983;SDS011;4037;47.980;10.172;2023-05-07T08:40:09;4.90;;;3.63;;
7983;SDS011;4037;47.980;10.172;2023-05-07T08:42:35;5.17;;;4.10;;
7983;SDS011;4037;47.980;10.172;2023-05-07T08:45:03;4.20;;;3.70;;
7983;SDS011;4037;47.980;10.172;2023-05-07T08:47:39;3.80;;;3.50;;
7983;SDS011;4037;47.980;10.172;2023-05-07T08:50:06;3.70;;;3.40;;
7983;SDS011;4037;47.980;10.172;2023-05-07T08:52:32;6.57;;;4.27;;
7983;SDS011;4037;47.980;10.172;2023-05-07T08:54:58;3.37;;;3.07;;
7983;SDS011;4037;47.980;10.172;2023-05-07T08:57:24;7.90;;;3.77;;
7983;SDS011;4037;47.980;10.172;2023-05-07T08:59:50;3.70;;;3.40;;
7983;SDS011;4037;47.980;10.172;2023-05-07T09:02:17;4.27;;;3.97;;
7983;SDS011;4037;47.980;10.172;2023-05-07T09:04:43;6.20;;;3.27;;
7983;SDS011;4037;47.980;10.172;2023-05-07T09:07:09;3.83;;;3.43;;
7983;SDS011;4037;47.980;10.172;2023-05-07T09:09:35;3.90;;;3.50;;
7983;SDS011;4037;47.980;10.172;2023-05-07T09:12:01;3.37;;;3.07;;
7983;SDS011;4037;47.980;10.172;2023-05-07T09:14:28;3.93;;;3.27;;
7983;SDS011;4037;47.980;10.172;2023-05-07T09:16:55;4.77;;;3.10;;
7983;SDS011;4037;47.980;10.172;2023-05-07T09:19:22;4.07;;;3.67;;
7983;SDS011;4037;47.980;10.172;2023-05-07T09:21:48;4.37;;;3.70;;
7983;SDS011;4037;47.980;10.172;2023-05-07T09:24:15;3.40;;;3.10;;
7983;SDS011;4037;47.980;10.172;2023-05-07T09:26:41;3.50;;;3.20;;
7983;SDS011;4037;47.980;10.172;2023-05-07T09:29:08;3.20;;;2.90;;
7983;SDS011;4037;47.980;10.172;2023-05-07T09:31:38;3.43;;;2.97;;
7983;SDS011;4037;47.980;10.172;2023-05-07T09:34:05;2.77;;;2.57;;
7983;SDS011;4037;47.980;10.172;2023-05-07T09:36:31;4.40;;;2.73;;
7983;SDS011;4037;47.980;10.172;2023-05-07T09:39:00;5.10;;;2.83;;
7983;SDS011;4037;47.980;10.172;2023-05-07T09:41:27;5.27;;;3.27;;
7983;SDS011;4037;47.980;10.172;2023-05-07T09:43:56;7.73;;;3.53;;
7983;SDS011;4037;47.980;10.172;2023-05-07T09:46:28;3.30;;;3.00;;
7983;SDS011;4037;47.980;10.172;2023-05-07T09:48:56;3.60;;;3.20;;
7983;SDS011;4037;47.980;10.172;2023-05-07T09:51:30;3.00;;;2.80;;
7983;SDS011;4037;47.980;10.172;2023-05-07T09:53:58;3.37;;;3.07;;
7983;SDS011;4037;47.980;10.172;2023-05-07T09:56:25;3.27;;;2.97;;
7983;SDS011;4037;47.980;10.172;2023-05-07T09:58:52;3.07;;;2.87;;
7983;SDS011;4037;47.980;10.172;2023-05-07T10:01:18;4.53;;;2.80;;
7983;SDS011;4037;47.980;10.172;2023-05-07T10:03:47;3.70;;;2.77;;
7983;SDS011;4037;47.980;10.172;2023-05-07T10:06:14;3.20;;;2.90;;
7983;SDS011;4037;47.980;10.172;2023-05-07T10:08:41;3.37;;;2.57;;
7983;SDS011;4037;47.980;10.172;2023-05-07T10:11:08;3.73;;;2.80;;
7983;SDS011;4037;47.980;10.172;2023-05-07T10:13:35;3.50;;;2.80;;
7983;SDS011;4037;47.980;10.172;2023-05-07T10:16:05;3.23;;;2.43;;
7983;SDS011;4037;47.980;10.172;2023-05-07T10:18:31;5.10;;;2.60;;
7983;SDS011;4037;47.980;10.172;2023-05-07T10:23:33;4.53;;;2.57;;
7983;SDS011;4037;47.980;10.172;2023-05-07T10:26:00;3.50;;;2.33;;
7983;SDS011;4037;47.980;10.172;2023-05-07T10:28:27;2.40;;;2.20;;
7983;SDS011;4037;47.980;10.172;2023-05-07T10:31:29;3.57;;;2.47;;
7983;SDS011;4037;47.980;10.172;2023-05-07T10:33:47;3.93;;;2.43;;
7983;SDS011;4037;47.980;10.172;2023-05-07T10:36:15;3.60;;;2.30;;
7983;SDS011;4037;47.980;10.172;2023-05-07T10:38:41;2.97;;;2.40;;
7983;SDS011;4037;47.980;10.172;2023-05-07T10:41:07;2.40;;;2.13;;
7983;SDS011;4037;47.980;10.172;2023-05-07T10:43:40;2.53;;;2.20;;
7983;SDS011;4037;47.980;10.172;2023-05-07T10:46:17;3.77;;;2.40;;
7983;SDS011;4037;47.980;10.172;2023-05-07T10:51:24;5.03;;;2.43;;
7983;SDS011;4037;47.980;10.172;2023-05-07T10:54:17;3.23;;;2.20;;
7983;SDS011;4037;47.980;10.172;2023-05-07T10:56:37;3.47;;;2.30;;
7983;SDS011;4037;47.980;10.172;2023-05-07T11:04:28;3.07;;;1.80;;
7983;SDS011;4037;47.980;10.172;2023-05-07T11:12:17;2.40;;;1.90;;
7983;SDS011;4037;47.980;10.172;2023-05-07T11:14:43;3.33;;;1.90;;
7983;SDS011;4037;47.980;10.172;2023-05-07T11:17:10;2.77;;;2.53;;
7983;SDS011;4037;47.980;10.172;2023-05-07T11:19:52;2.60;;;1.90;;
7983;SDS011;4037;47.980;10.172;2023-05-07T11:25:04;2.13;;;1.93;;
7983;SDS011;4037;47.980;10.172;2023-05-07T11:27:30;3.10;;;1.97;;
7983;SDS011;4037;47.980;10.172;2023-05-07T11:29:57;3.35;;;2.05;;
7983;SDS011;4037;47.980;10.172;2023-05-07T11:32:23;5.43;;;2.17;;
7983;SDS011;4037;47.980;10.172;2023-05-07T11:34:52;2.00;;;1.80;;
7983;SDS011;4037;47.980;10.172;2023-05-07T11:37:19;2.10;;;1.77;;
7983;SDS011;4037;47.980;10.172;2023-05-07T11:39:45;2.03;;;1.90;;
7983;SDS011;4037;47.980;10.172;2023-05-07T11:42:31;3.03;;;2.23;;
7983;SDS011;4037;47.980;10.172;2023-05-07T11:44:57;4.07;;;2.25;;
7983;SDS011;4037;47.980;10.172;2023-05-07T11:47:24;2.80;;;1.97;;
7983;SDS011;4037;47.980;10.172;2023-05-07T11:49:53;3.25;;;2.60;;
7983;SDS011;4037;47.980;10.172;2023-05-07T11:52:20;3.08;;;2.08;;
7983;SDS011;4037;47.980;10.172;2023-05-07T11:54:53;2.47;;;2.28;;
7983;SDS011;4037;47.980;10.172;2023-05-07T11:57:20;2.75;;;2.50;;
7983;SDS011;4037;47.980;10.172;2023-05-07T11:59:46;4.05;;;2.45;;
7983;SDS011;4037;47.980;10.172;2023-05-07T12:02:16;2.88;;;2.55;;
7983;SDS011;4037;47.980;10.172;2023-05-07T12:04:43;3.22;;;2.53;;
7983;SDS011;4037;47.980;10.172;2023-05-07T12:07:12;3.00;;;2.38;;
7983;SDS011;4037;47.980;10.172;2023-05-07T12:09:39;3.97;;;2.63;;
7983;SDS011;4037;47.980;10.172;2023-05-07T12:12:05;2.92;;;2.53;;
7983;SDS011;4037;47.980;10.172;2023-05-07T12:14:31;2.55;;;2.30;;
7983;SDS011;4037;47.980;10.172;2023-05-07T12:16:57;4.35;;;3.00;;
7983;SDS011;4037;47.980;10.172;2023-05-07T12:19:26;3.67;;;2.60;;
7983;SDS011;4037;47.980;10.172;2023-05-07T12:21:52;4.53;;;2.92;;
7983;SDS011;4037;47.980;10.172;2023-05-07T12:24:18;4.50;;;2.60;;
7983;SDS011;4037;47.980;10.172;2023-05-07T12:26:44;4.88;;;3.28;;
7983;SDS011;4037;47.980;10.172;2023-05-07T12:29:10;4.28;;;3.00;;
7983;SDS011;4037;47.980;10.172;2023-05-07T12:31:36;2.88;;;2.22;;
7983;SDS011;4037;47.980;10.172;2023-05-07T12:34:02;3.90;;;2.80;;
7983;SDS011;4037;47.980;10.172;2023-05-07T12:36:35;3.53;;;3.13;;
7983;SDS011;4037;47.980;10.172;2023-05-07T12:39:03;5.70;;;2.60;;
7983;SDS011;4037;47.980;10.172;2023-05-07T12:41:30;3.38;;;2.40;;
7983;SDS011;4037;47.980;10.172;2023-05-07T12:43:56;2.80;;;2.38;;
7983;SDS011;4037;47.980;10.172;2023-05-07T12:46:23;4.25;;;2.60;;
7983;SDS011;4037;47.980;10.172;2023-05-07T12:48:49;3.08;;;2.42;;
7983;SDS011;4037;47.980;10.172;2023-05-07T12:51:15;3.20;;;2.77;;
7983;SDS011;4037;47.980;10.172;2023-05-07T12:53:42;5.80;;;2.93;;
7983;SDS011;4037;47.980;10.172;2023-05-07T12:56:08;4.03;;;2.83;;
7983;SDS011;4037;47.980;10.172;2023-05-07T12:58:34;3.45;;;2.80;;
7983;SDS011;4037;47.980;10.172;2023-05-07T13:01:03;2.92;;;2.70;;
7983;SDS011;4037;47.980;10.172;2023-05-07T13:03:30;3.58;;;2.50;;
7983;SDS011;4037;47.980;10.172;2023-05-07T13:05:58;5.68;;;2.60;;
7983;SDS011;4037;47.980;10.172;2023-05-07T13:08:34;3.65;;;2.50;;
7983;SDS011;4037;47.980;10.172;2023-05-07T13:11:01;3.30;;;2.10;;
7983;SDS011;4037;47.980;10.172;2023-05-07T13:13:29;2.90;;;2.33;;
7983;SDS011;4037;47.980;10.172;2023-05-07T13:15:55;1.88;;;1.70;;
7983;SDS011;4037;47.980;10.172;2023-05-07T13:18:21;3.72;;;2.00;;
7983;SDS011;4037;47.980;10.172;2023-05-07T13:20:47;3.13;;;2.08;;
7983;SDS011;4037;47.980;10.172;2023-05-07T13:23:13;2.72;;;2.25;;
7983;SDS011;4037;47.980;10.172;2023-05-07T13:25:39;3.13;;;2.38;;
7983;SDS011;4037;47.980;10.172;2023-05-07T13:28:05;2.85;;;2.30;;
7983;SDS011;4037;47.980;10.172;2023-05-07T13:30:31;2.92;;;1.88;;
7983;SDS011;4037;47.980;10.172;2023-05-07T13:32:57;2.92;;;2.08;;
7983;SDS011;4037;47.980;10.172;2023-05-07T13:35:23;3.05;;;2.75;;
7983;SDS011;4037;47.980;10.172;2023-05-07T13:37:50;4.05;;;2.60;;
7983;SDS011;4037;47.980;10.172;2023-05-07T13:40:17;3.75;;;2.90;;
7983;SDS011;4037;47.980;10.172;2023-05-07T13:42:44;4.15;;;2.28;;
7983;SDS011;4037;47.980;10.172;2023-05-07T13:45:10;4.88;;;2.13;;
7983;SDS011;4037;47.980;10.172;2023-05-07T13:47:39;4.25;;;2.60;;
7983;SDS011;4037;47.980;10.172;2023-05-07T13:50:05;2.58;;;2.38;;
7983;SDS011;4037;47.980;10.172;2023-05-07T13:52:31;3.75;;;2.10;;
7983;SDS011;4037;47.980;10.172;2023-05-07T13:54:57;3.58;;;2.70;;
7983;SDS011;4037;47.980;10.172;2023-05-07T13:57:23;3.10;;;2.25;;
7983;SDS011;4037;47.980;10.172;2023-05-07T13:59:49;3.65;;;2.30;;
7983;SDS011;4037;47.980;10.172;2023-05-07T14:02:15;2.75;;;2.55;;
7983;SDS011;4037;47.980;10.172;2023-05-07T14:04:41;2.80;;;2.45;;
7983;SDS011;4037;47.980;10.172;2023-05-07T14:07:08;2.72;;;1.88;;
7983;SDS011;4037;47.980;10.172;2023-05-07T14:09:34;4.43;;;2.45;;
7983;SDS011;4037;47.980;10.172;2023-05-07T14:12:00;2.47;;;1.95;;
7983;SDS011;4037;47.980;10.172;2023-05-07T14:14:26;3.05;;;1.95;;
7983;SDS011;4037;47.980;10.172;2023-05-07T14:16:52;2.92;;;1.67;;
7983;SDS011;4037;47.980;10.172;2023-05-07T14:19:18;2.65;;;1.83;;
7983;SDS011;4037;47.980;10.172;2023-05-07T14:21:44;3.63;;;1.90;;
7983;SDS011;4037;47.980;10.172;2023-05-07T14:24:10;1.58;;;1.48;;
7983;SDS011;4037;47.980;10.172;2023-05-07T14:26:36;3.28;;;2.10;;
7983;SDS011;4037;47.980;10.172;2023-05-07T14:29:02;2.30;;;1.95;;
7983;SDS011;4037;47.980;10.172;2023-05-07T14:31:28;2.38;;;2.10;;
7983;SDS011;4037;47.980;10.172;2023-05-07T14:33:54;2.85;;;1.80;;
7983;SDS011;4037;47.980;10.172;2023-05-07T14:36:22;2.55;;;1.85;;
7983;SDS011;4037;47.980;10.172;2023-05-07T14:38:51;2.05;;;1.77;;
7983;SDS011;4037;47.980;10.172;2023-05-07T14:41:18;3.88;;;2.30;;
7983;SDS011;4037;47.980;10.172;2023-05-07T14:43:45;3.63;;;2.20;;
7983;SDS011;4037;47.980;10.172;2023-05-07T14:46:15;4.78;;;2.13;;
7983;SDS011;4037;47.980;10.172;2023-05-07T14:48:41;2.35;;;1.67;;
7983;SDS011;4037;47.980;10.172;2023-05-07T14:51:07;2.72;;;2.20;;
7983;SDS011;4037;47.980;10.172;2023-05-07T14:53:33;2.40;;;1.90;;
7983;SDS011;4037;47.980;10.172;2023-05-07T14:55:59;5.28;;;2.20;;
7983;SDS011;4037;47.980;10.172;2023-05-07T14:58:25;3.63;;;2.10;;
7983;SDS011;4037;47.980;10.172;2023-05-07T15:00:51;6.10;;;2.00;;
7983;SDS011;4037;47.980;10.172;2023-05-07T15:03:17;2.60;;;1.67;;
7983;SDS011;4037;47.980;10.172;2023-05-07T15:05:43;2.55;;;2.33;;
7983;SDS011;4037;47.980;10.172;2023-05-07T15:08:09;3.53;;;2.00;;
7983;SDS011;4037;47.980;10.172;2023-05-07T15:10:36;3.47;;;1.63;;
7983;SDS011;4037;47.980;10.172;2023-05-07T15:13:05;2.45;;;2.25;;
7983;SDS011;4037;47.980;10.172;2023-05-07T15:15:32;2.53;;;2.28;;